Time;durP1;ratioP1;P1;durP2;ratioP2;P2;SDS_P1;SDS_P2;PMS_P1;PMS_P2;Temp;Humidity;BMP_temperature;BMP_pressure;BME280_temperature;BME280_humidity;BME280_pressure;Samples;Min_cycle;Max_cycle;Signal;HPM_P1;HPM_P2
2020/12/10 00:00:11;;;;;;;30.55;20.33;;;;;;;12.96;50.60;100143.03;5004596;27;97714;-58
2020/12/10 00:02:37;;;;;;;30.48;19.98;;;;;;;12.95;50.59;100142.22;5012950;27;115969;-59
2020/12/10 00:05:05;;;;;;;30.98;20.85;;;;;;;12.93;50.68;100147.13;5021928;27;113080;-58
2020/12/10 00:07:31;;;;;;;29.83;20.00;;;;;;;12.92;50.80;100131.97;5025494;27;97828;-59
2020/12/10 00:09:57;;;;;;;28.98;20.02;;;;;;;12.96;50.56;100121.38;5012835;27;116550;-59
2020/12/10 00:12:23;;;;;;;30.88;20.52;;;;;;;12.94;50.44;100118.97;5003565;27;107510;-58
2020/12/10 00:14:53;;;;;;;32.33;20.13;;;;;;;12.93;50.62;100124.66;5003245;27;126348;-59
2020/12/10 00:17:29;;;;;;;29.50;20.63;;;;;;;12.89;50.71;100118.22;5005884;27;97918;-59
2020/12/10 00:19:55;;;;;;;30.05;19.90;;;;;;;12.92;50.63;100120.34;5018766;27;117168;-59
2020/12/10 00:22:22;;;;;;;33.33;20.75;;;;;;;12.95;50.64;100111.66;5003750;27;121349;-57
2020/12/10 00:24:48;;;;;;;30.95;20.23;;;;;;;12.92;50.47;100110.34;5003035;27;118628;-59
2020/12/10 00:27:18;;;;;;;29.25;20.02;;;;;;;12.89;50.75;100107.41;4986829;27;98121;-59
2020/12/10 00:29:47;;;;;;;30.50;19.70;;;;;;;12.88;50.69;100097.69;5002937;27;98458;-57
2020/12/10 00:32:13;;;;;;;31.33;20.02;;;;;;;12.87;50.73;100099.59;5007717;27;128377;-57
2020/12/10 00:34:41;;;;;;;29.25;19.88;;;;;;;12.89;50.59;100100.13;5023957;27;99265;-57
2020/12/10 00:37:07;;;;;;;30.50;20.35;;;;;;;12.87;50.73;100101.50;5023908;27;111618;-58
2020/12/10 00:39:35;;;;;;;29.65;19.77;;;;;;;12.89;50.44;100096.59;5022898;27;119684;-59
2020/12/10 00:42:02;;;;;;;29.52;20.42;;;;;;;12.86;50.44;100099.91;5005867;27;98300;-58
2020/12/10 00:44:29;;;;;;;29.13;19.33;;;;;;;12.86;50.52;100098.00;5023611;27;97983;-59
2020/12/10 00:46:55;;;;;;;29.63;20.05;;;;;;;12.82;50.58;100102.38;5024907;27;97911;-59
2020/12/10 00:49:21;;;;;;;30.38;19.42;;;;;;;12.80;50.62;100101.03;5023788;27;98995;-57
2020/12/10 00:51:48;;;;;;;28.90;19.05;;;;;;;12.75;50.64;100086.50;5024747;27;98293;-59
2020/12/10 00:54:14;;;;;;;30.23;19.38;;;;;;;12.75;50.78;100094.59;5023394;27;98108;-57
2020/12/10 00:56:41;;;;;;;27.98;19.15;;;;;;;12.75;50.72;100091.09;5019502;27;97874;-57
2020/12/10 00:59:07;;;;;;;30.73;20.17;;;;;;;12.75;50.96;100086.50;5016623;27;103235;-57
2020/12/10 01:01:33;;;;;;;27.63;19.02;;;;;;;12.76;50.71;100085.38;5003523;27;128671;-57
2020/12/10 01:03:59;;;;;;;28.30;19.15;;;;;;;12.75;50.66;100083.00;5002158;27;127685;-59
2020/12/10 01:06:26;;;;;;;27.60;18.33;;;;;;;12.73;50.62;100079.75;5003551;27;117158;-58
2020/12/10 01:08:52;;;;;;;28.45;19.25;;;;;;;12.71;50.71;100080.06;5012285;27;98506;-59
2020/12/10 01:11:18;;;;;;;31.00;20.10;;;;;;;12.71;50.95;100077.34;5018136;27;128057;-59
2020/12/10 01:13:44;;;;;;;28.88;19.45;;;;;;;12.70;50.58;100077.66;5011312;27;102938;-59
2020/12/10 01:16:10;;;;;;;29.05;20.08;;;;;;;12.69;50.94;100076.03;5002729;27;117721;-57
2020/12/10 01:18:36;;;;;;;29.23;19.40;;;;;;;12.68;50.81;100072.53;5001968;27;127851;-59
2020/12/10 01:21:02;;;;;;;27.98;19.95;;;;;;;12.68;50.90;100066.31;5003500;27;99090;-59
2020/12/10 01:23:28;;;;;;;27.98;18.70;;;;;;;12.67;50.75;100067.41;5001599;27;129076;-58
2020/12/10 01:25:54;;;;;;;29.10;19.13;;;;;;;12.66;50.96;100060.41;5006324;27;106537;-59
2020/12/10 01:28:20;;;;;;;28.40;19.63;;;;;;;12.64;50.88;100057.97;5017101;27;98342;-58
2020/12/10 01:30:46;;;;;;;28.85;19.65;;;;;;;12.66;50.89;100063.09;5002330;27;128278;-59
2020/12/10 01:33:12;;;;;;;30.10;19.17;;;;;;;12.66;51.12;100057.69;4985077;27;97930;-58
2020/12/10 01:35:39;;;;;;;30.42;19.50;;;;;;;12.65;51.28;100053.38;5004169;27;97828;-57
2020/12/10 01:38:05;;;;;;;30.23;20.83;;;;;;;12.64;50.80;100049.06;5001996;27;127290;-59
2020/12/10 01:40:31;;;;;;;30.33;20.40;;;;;;;12.63;50.80;100044.75;5001804;27;127845;-57
2020/12/10 01:42:57;;;;;;;30.27;20.10;;;;;;;12.62;50.45;100054.78;4968007;27;127044;-57
2020/12/10 01:45:23;;;;;;;31.63;21.05;;;;;;;12.62;50.88;100041.25;4987126;27;118511;-59
2020/12/10 01:47:49;;;;;;;31.58;20.83;;;;;;;12.62;51.01;100043.16;5003351;27;128129;-57
2020/12/10 01:50:15;;;;;;;30.05;20.50;;;;;;;12.60;50.95;100039.91;4970319;27;126626;-59
2020/12/10 01:52:41;;;;;;;33.42;21.40;;;;;;;12.60;50.95;100046.13;5006793;27;98009;-59
2020/12/10 01:55:07;;;;;;;31.15;20.92;;;;;;;12.59;50.96;100039.13;5019382;27;117825;-59
2020/12/10 01:57:33;;;;;;;32.95;20.80;;;;;;;12.60;50.62;100032.59;5025429;27;127070;-57
2020/12/10 01:59:59;;;;;;;32.40;21.08;;;;;;;12.59;50.84;100038.31;5007022;27;127340;-57
2020/12/10 02:02:25;;;;;;;33.03;21.10;;;;;;;12.60;50.83;100032.59;4991665;27;97912;-57
2020/12/10 02:04:51;;;;;;;30.17;20.38;;;;;;;12.62;50.84;100035.03;5007222;27;97795;-59
2020/12/10 02:07:17;;;;;;;34.08;21.90;;;;;;;12.61;51.00;100036.91;5004031;27;128031;-59
2020/12/10 02:09:44;;;;;;;30.02;20.70;;;;;;;12.62;51.00;100041.25;5022261;27;128277;-58
2020/12/10 02:12:10;;;;;;;31.50;21.08;;;;;;;12.60;50.95;100032.59;5025878;27;124258;-59
2020/12/10 02:14:37;;;;;;;36.55;21.98;;;;;;;12.58;50.97;100034.81;5025380;27;118568;-57
2020/12/10 02:17:05;;;;;;;34.85;21.70;;;;;;;12.58;51.30;100026.69;5027181;27;98518;-59
2020/12/10 02:19:31;;;;;;;33.97;21.38;;;;;;;12.58;51.00;100017.78;5025545;27;111768;-58
2020/12/10 02:21:57;;;;;;;34.42;21.15;;;;;;;12.55;50.98;100021.88;5019806;27;98245;-57
2020/12/10 02:24:23;;;;;;;34.60;21.60;;;;;;;12.53;51.04;100024.84;5025749;27;101510;-57
2020/12/10 02:26:49;;;;;;;33.60;21.00;;;;;;;12.53;50.95;100010.53;5025651;27;128019;-57
2020/12/10 02:29:19;;;;;;;32.80;21.60;;;;;;;12.52;51.16;100012.44;5025694;27;127815;-59
2020/12/10 02:31:45;;;;;;;35.28;21.83;;;;;;;12.51;51.10;100018.13;5006477;27;98058;-59
2020/12/10 02:34:12;;;;;;;34.38;21.35;;;;;;;12.50;51.25;100016.53;5004983;27;102722;-59
2020/12/10 02:36:38;;;;;;;33.38;21.73;;;;;;;12.49;51.07;100014.91;5005864;27;98228;-59
2020/12/10 02:39:06;;;;;;;33.90;21.70;;;;;;;12.48;51.21;100003.28;5004873;27;107168;-59
2020/12/10 02:41:32;;;;;;;35.90;22.08;;;;;;;12.49;51.25;100004.09;4987094;27;98542;-58
2020/12/10 02:43:58;;;;;;;32.28;21.67;;;;;;;12.49;51.17;100001.41;5002928;27;103662;-59
2020/12/10 02:46:24;;;;;;;32.75;21.15;;;;;;;12.46;51.07;100002.00;5003546;27;125923;-58
2020/12/10 02:48:50;;;;;;;33.40;21.25;;;;;;;12.47;51.01;100001.69;5004200;27;127866;-57
2020/12/10 02:51:16;;;;;;;33.67;21.27;;;;;;;12.46;50.82;99997.41;5022834;27;127444;-58
2020/12/10 02:53:42;;;;;;;32.47;21.23;;;;;;;12.46;50.91;100002.81;4997125;27;116993;-59
2020/12/10 02:56:10;;;;;;;33.35;20.90;;;;;;;12.47;50.82;99996.28;5004948;27;126434;-59
2020/12/10 02:58:37;;;;;;;33.03;21.30;;;;;;;12.47;51.12;99998.19;4987379;27;97996;-57
2020/12/10 03:01:07;;;;;;;32.17;21.05;;;;;;;12.44;51.02;99996.88;5021787;27;97972;-59
2020/12/10 03:03:33;;;;;;;32.65;20.48;;;;;;;12.42;51.12;100004.47;5002557;27;106903;-57
2020/12/10 03:05:59;;;;;;;35.42;21.45;;;;;;;12.42;51.27;99990.16;5003310;27;99378;-59
2020/12/10 03:08:26;;;;;;;30.45;20.02;;;;;;;12.39;51.06;99988.03;5004612;27;126063;-57
2020/12/10 03:10:53;;;;;;;33.40;21.02;;;;;;;12.39;51.00;99988.84;5005220;27;97772;-59
2020/12/10 03:13:21;;;;;;;33.05;20.92;;;;;;;12.38;50.96;99984.53;5005521;27;99975;-57
2020/12/10 03:15:47;;;;;;;32.58;20.65;;;;;;;12.39;51.08;99977.22;5005267;27;98699;-57
2020/12/10 03:18:13;;;;;;;34.03;20.42;;;;;;;12.38;50.68;99981.00;5013941;27;127134;-57
2020/12/10 03:20:39;;;;;;;31.67;20.88;;;;;;;12.35;50.94;99987.00;5023756;27;127417;-58
2020/12/10 03:23:05;;;;;;;31.88;19.85;;;;;;;12.33;51.18;99984.56;5025599;27;97703;-57
2020/12/10 03:25:31;;;;;;;34.22;20.52;;;;;;;12.31;51.01;99981.38;5024971;27;98963;-57
2020/12/10 03:27:57;;;;;;;33.28;20.80;;;;;;;12.33;51.18;99972.97;5021295;27;105978;-57
2020/12/10 03:30:23;;;;;;;30.40;19.73;;;;;;;12.28;50.81;99980.03;5011164;27;128491;-59
2020/12/10 03:32:49;;;;;;;31.27;19.80;;;;;;;12.29;50.84;99984.34;5022413;27;115883;-58
2020/12/10 03:35:16;;;;;;;30.70;19.73;;;;;;;12.28;50.84;99974.63;5022425;27;127169;-58
2020/12/10 03:37:42;;;;;;;31.23;20.15;;;;;;;12.27;50.77;99967.63;5023889;27;100291;-57
2020/12/10 03:40:09;;;;;;;32.53;20.50;;;;;;;12.27;50.89;99959.53;5004189;27;110907;-57
2020/12/10 03:42:35;;;;;;;32.83;20.35;;;;;;;12.24;50.88;99967.41;5005892;27;97874;-59
2020/12/10 03:45:02;;;;;;;32.20;19.42;;;;;;;12.25;50.95;99969.81;5016511;27;98184;-57
2020/12/10 03:47:28;;;;;;;31.63;20.38;;;;;;;12.25;50.80;99960.91;5004804;27;110007;-59
2020/12/10 03:49:54;;;;;;;30.33;19.95;;;;;;;12.23;51.10;99966.59;5007721;27;127363;-59
2020/12/10 03:52:20;;;;;;;32.40;19.65;;;;;;;12.22;50.87;99953.38;5004002;27;117826;-59
2020/12/10 03:54:46;;;;;;;32.17;20.20;;;;;;;12.23;50.81;99961.19;4968090;27;127791;-57
2020/12/10 03:57:12;;;;;;;30.08;19.35;;;;;;;12.22;51.20;99958.78;5004065;27;127736;-58
2020/12/10 03:59:38;;;;;;;31.50;20.33;;;;;;;12.22;51.08;99959.59;5012620;27;115118;-57
2020/12/10 04:02:04;;;;;;;30.50;19.95;;;;;;;12.21;50.80;99962.56;5002501;27;115991;-59
2020/12/10 04:04:30;;;;;;;31.88;20.10;;;;;;;12.21;51.03;99968.78;5006119;27;98639;-57
2020/12/10 04:06:56;;;;;;;29.80;20.00;;;;;;;12.19;50.84;99968.28;5008224;27;98450;-57
2020/12/10 04:09:22;;;;;;;30.33;19.70;;;;;;;12.20;50.56;99971.78;5001722;27;107470;-58
2020/12/10 04:11:48;;;;;;;30.85;20.08;;;;;;;12.19;50.95;99970.97;5022435;27;97936;-57
2020/12/10 04:14:14;;;;;;;28.95;18.90;;;;;;;12.18;50.75;99976.66;5011779;27;127764;-58
2020/12/10 04:16:40;;;;;;;30.38;19.05;;;;;;;12.17;50.78;99975.06;5003187;27;127855;-59
2020/12/10 04:19:06;;;;;;;29.20;19.33;;;;;;;12.16;50.79;99974.25;5003751;27;128171;-57
2020/12/10 04:21:32;;;;;;;28.60;18.73;;;;;;;12.17;50.66;99961.56;5003902;27;117728;-59
2020/12/10 04:23:58;;;;;;;28.70;19.20;;;;;;;12.17;50.89;99969.66;5013638;27;110439;-59
2020/12/10 04:26:24;;;;;;;28.73;18.50;;;;;;;12.13;50.94;99971.34;5023716;27;128519;-59
2020/12/10 04:28:50;;;;;;;28.55;18.35;;;;;;;12.11;50.83;99968.94;5024012;27;103458;-59
2020/12/10 04:31:17;;;;;;;27.27;18.02;;;;;;;12.13;50.88;99968.63;5013397;27;118331;-57
2020/12/10 04:33:43;;;;;;;28.77;18.63;;;;;;;12.08;50.97;99966.81;5004034;27;98448;-57
2020/12/10 04:36:09;;;;;;;27.73;17.95;;;;;;;12.08;50.77;99974.09;5003011;27;98284;-57
2020/12/10 04:38:35;;;;;;;28.02;18.25;;;;;;;12.10;50.96;99978.09;5014355;27;126744;-59
2020/12/10 04:41:02;;;;;;;27.42;17.67;;;;;;;12.08;50.45;99966.00;5023637;27;118190;-57
2020/12/10 04:43:28;;;;;;;26.63;18.08;;;;;;;12.08;50.41;99968.69;5022505;27;98453;-57
2020/12/10 04:46:02;;;;;;;28.80;18.00;;;;;;;12.05;50.56;99964.66;5024361;27;107704;-59
2020/12/10 04:48:33;;;;;;;27.92;17.85;;;;;;;12.08;50.77;99963.28;5024252;27;97943;-59
2020/12/10 04:51:02;;;;;;;28.98;18.67;;;;;;;12.09;50.79;99959.50;5024639;27;97818;-59
2020/12/10 04:53:29;;;;;;;28.25;17.70;;;;;;;12.06;50.46;99955.47;5017314;27;98979;-59
2020/12/10 04:55:57;;;;;;;28.67;18.38;;;;;;;12.05;50.48;99961.97;5003300;27;113004;-59
2020/12/10 04:58:23;;;;;;;27.38;17.90;;;;;;;12.06;50.82;99966.25;5003035;27;119762;-57
2020/12/10 05:00:58;;;;;;;29.05;18.52;;;;;;;12.10;50.76;99969.19;5005405;27;97852;-57
2020/12/10 05:03:25;;;;;;;26.27;17.70;;;;;;;12.10;50.86;99963.78;5015398;27;97850;-59
2020/12/10 05:05:51;;;;;;;27.25;17.95;;;;;;;12.08;50.89;99961.41;5008153;27;99301;-58
2020/12/10 05:08:29;;;;;;;26.65;18.08;;;;;;;12.06;50.79;99965.47;5003032;27;102972;-59
2020/12/10 05:10:56;;;;;;;26.52;17.67;;;;;;;12.11;50.31;99962.72;5004037;27;98260;-59
2020/12/10 05:13:22;;;;;;;27.48;18.05;;;;;;;12.10;50.49;99959.19;5009459;27;99117;-59
2020/12/10 05:15:48;;;;;;;27.45;18.27;;;;;;;12.11;50.42;99965.44;5023626;27;98988;-58
2020/12/10 05:18:15;;;;;;;28.70;18.23;;;;;;;12.09;50.38;99960.28;5016954;27;127238;-57
2020/12/10 05:20:46;;;;;;;27.48;17.92;;;;;;;12.08;50.25;99961.41;5003524;27;97653;-59
2020/12/10 05:23:13;;;;;;;27.73;17.88;;;;;;;12.06;50.46;99955.47;5003330;27;98821;-59
2020/12/10 05:25:52;;;;;;;28.20;17.67;;;;;;;12.05;50.55;99956.56;5003435;27;98111;-59
2020/12/10 05:28:20;;;;;;;27.88;17.73;;;;;;;12.08;50.68;99956.00;5003174;27;97768;-59
2020/12/10 05:31:03;;;;;;;29.15;18.35;;;;;;;12.08;50.63;99960.59;5010698;27;99340;-59
2020/12/10 05:33:29;;;;;;;30.45;18.35;;;;;;;12.06;50.82;99954.66;5023820;27;99011;-58
2020/12/10 05:36:11;;;;;;;28.67;17.77;;;;;;;12.00;50.49;99956.63;5021615;27;128293;-57
2020/12/10 05:39:04;;;;;;;27.35;17.90;;;;;;;12.00;50.88;99956.63;5022503;27;99014;-57
2020/12/10 05:41:38;;;;;;;28.70;18.85;;;;;;;12.04;50.22;99958.47;5024648;27;97823;-59
2020/12/10 05:44:21;;;;;;;28.35;17.73;;;;;;;11.98;50.70;99948.81;5016767;27;98426;-57
2020/12/10 05:46:53;;;;;;;26.60;17.70;;;;;;;12.02;50.63;99949.03;4985748;27;98488;-59
2020/12/10 05:49:19;;;;;;;;;;;;;;;11.95;50.98;99948.59;4995989;27;98090;-59
2020/12/10 05:51:47;;;;;;;27.73;16.60;;;;;;;11.95;50.82;99941.31;5002167;27;119306;-57
2020/12/10 05:54:15;;;;;;;26.75;17.83;;;;;;;11.98;50.73;99940.69;5003124;27;100417;-59
2020/12/10 05:57:00;;;;;;;26.48;17.17;;;;;;;11.96;50.44;99942.91;5001116;27;98700;-59
2020/12/10 05:59:30;;;;;;;26.42;17.48;;;;;;;11.98;50.36;99945.31;5014630;27;98212;-57
2020/12/10 06:02:03;;;;;;;27.92;17.65;;;;;;;11.97;50.68;99946.41;5023775;27;97699;-57
2020/12/10 06:04:30;;;;;;;29.38;17.83;;;;;;;11.98;50.54;99948.81;5022478;27;118044;-59
2020/12/10 06:06:59;;;;;;;27.80;17.30;;;;;;;12.00;50.11;99956.63;5023092;27;114708;-58
2020/12/10 06:09:26;;;;;;;28.85;18.10;;;;;;;12.07;50.26;99957.09;5021140;27;98283;-59
2020/12/10 06:12:02;;;;;;;27.83;17.90;;;;;;;12.08;50.15;99955.19;5023315;27;97706;-58
2020/12/10 06:14:28;;;;;;;28.63;18.02;;;;;;;12.11;49.96;99952.72;5002079;27;98320;-57
2020/12/10 06:17:10;;;;;;;27.38;17.35;;;;;;;12.10;49.73;99951.09;5001731;27;126606;-61
2020/12/10 06:19:37;;;;;;;26.65;17.15;;;;;;;12.13;49.82;99958.63;5001206;27;127414;-59
2020/12/10 06:22:29;;;;;;;27.77;17.33;;;;;;;12.12;49.45;99956.22;5003105;27;97707;-59
2020/12/10 06:25:19;;;;;;;26.27;17.43;;;;;;;12.10;49.66;99953.78;5002074;27;98854;-59
2020/12/10 06:27:45;;;;;;;26.00;17.38;;;;;;;12.16;49.57;99947.25;5002008;27;99420;-59
2020/12/10 06:30:14;;;;;;;25.80;16.48;;;;;;;12.13;49.58;99955.13;5005023;27;126203;-58
2020/12/10 06:32:51;;;;;;;26.45;17.38;;;;;;;12.11;49.32;99955.41;5005339;27;97843;-59
2020/12/10 06:35:36;;;;;;;25.73;17.10;;;;;;;12.10;49.52;99961.09;5003483;27;98352;-59
2020/12/10 06:38:04;;;;;;;24.38;16.08;;;;;;;12.09;49.79;99963.00;5006106;27;99584;-59
2020/12/10 06:40:38;;;;;;;24.60;16.67;;;;;;;12.11;49.56;99970.84;5005588;27;98390;-57
2020/12/10 06:43:05;;;;;;;25.92;16.52;;;;;;;12.09;49.84;99967.59;5006029;27;98818;-57
2020/12/10 06:45:35;;;;;;;25.15;16.50;;;;;;;12.07;49.82;99973.31;5006124;27;98585;-59
2020/12/10 06:48:11;;;;;;;24.50;16.10;;;;;;;12.05;49.40;99961.97;5005671;27;98748;-58
2020/12/10 06:50:39;;;;;;;23.67;16.25;;;;;;;12.06;49.55;99966.25;5005874;27;97992;-57
2020/12/10 06:53:21;;;;;;;24.42;16.17;;;;;;;12.03;49.36;99970.38;5005459;27;97915;-59
2020/12/10 06:55:56;;;;;;;24.65;15.43;;;;;;;12.01;49.35;99963.63;5023959;27;98910;-59
2020/12/10 06:58:44;;;;;;;25.38;15.52;;;;;;;11.99;49.64;99972.03;5026850;27;98185;-57
2020/12/10 07:01:34;;;;;;;23.77;15.98;;;;;;;11.99;49.77;99977.44;4995358;27;98400;-57
2020/12/10 07:04:30;;;;;;;26.08;15.65;;;;;;;11.97;49.54;99976.13;5005613;27;97722;-57
2020/12/10 07:07:12;;;;;;;22.17;14.50;;;;;;;11.97;49.50;99968.81;5002867;27;98362;-58
2020/12/10 07:09:49;;;;;;;24.90;16.20;;;;;;;11.98;49.42;99973.13;5002474;27;98603;-58
2020/12/10 07:12:24;;;;;;;24.92;16.38;;;;;;;11.97;49.61;99971.50;5003125;27;97865;-58
2020/12/10 07:14:51;;;;;;;23.10;15.27;;;;;;;11.98;49.83;99975.81;5002687;27;98741;-59
2020/12/10 07:17:17;;;;;;;24.75;15.60;;;;;;;11.99;49.57;99971.25;5002938;27;98919;-59
2020/12/10 07:19:43;;;;;;;24.45;15.98;;;;;;;11.98;49.38;99972.31;5002660;27;98843;-59
2020/12/10 07:22:09;;;;;;;24.90;15.80;;;;;;;11.99;48.92;99966.63;5007959;27;99159;-59
2020/12/10 07:24:35;;;;;;;23.30;16.02;;;;;;;11.98;49.57;99969.59;5022338;27;119232;-59
2020/12/10 07:27:01;;;;;;;24.40;16.13;;;;;;;11.98;49.59;99973.13;5021711;27;127992;-58
2020/12/10 07:29:27;;;;;;;25.30;16.08;;;;;;;11.99;49.47;99972.03;5021626;27;121997;-57
2020/12/10 07:31:53;;;;;;;25.70;16.30;;;;;;;11.98;49.34;99970.41;5020559;27;98582;-57
2020/12/10 07:34:19;;;;;;;23.92;15.63;;;;;;;11.99;49.54;99979.34;5006832;27;97919;-59
2020/12/10 07:36:47;;;;;;;25.27;16.15;;;;;;;12.00;49.50;99980.94;5001809;27;127945;-59
2020/12/10 07:39:16;;;;;;;25.75;15.73;;;;;;;11.99;49.49;99979.34;4983666;27;98147;-57
2020/12/10 07:41:42;;;;;;;25.00;15.98;;;;;;;11.98;49.45;99980.41;5000521;27;98046;-58
2020/12/10 07:44:08;;;;;;;23.38;15.55;;;;;;;11.99;49.80;99979.34;5001636;27;119083;-59
2020/12/10 07:46:36;;;;;;;23.58;15.70;;;;;;;11.99;49.89;99982.03;5000936;27;128145;-57
2020/12/10 07:49:02;;;;;;;24.95;15.75;;;;;;;11.98;49.99;99988.53;4994888;27;99045;-59
2020/12/10 07:51:29;;;;;;;25.38;16.58;;;;;;;11.98;49.81;99988.53;5001342;27;113318;-57
2020/12/10 07:54:02;;;;;;;25.45;16.55;;;;;;;11.94;49.85;99987.47;5001328;27;98030;-59
2020/12/10 07:56:29;;;;;;;26.10;19.20;;;;;;;11.96;50.15;99985.31;4999763;27;100842;-57
2020/12/10 07:59:22;;;;;;;26.83;19.92;;;;;;;11.94;50.40;99987.47;4999817;27;98851;-58
2020/12/10 08:01:56;;;;;;;28.13;20.23;;;;;;;11.94;50.02;99980.19;4999215;27;126712;-59
2020/12/10 08:04:22;;;;;;;27.98;20.17;;;;;;;11.95;50.06;99978.31;4984403;27;98223;-57
2020/12/10 08:06:52;;;;;;;27.75;20.60;;;;;;;11.94;50.69;99982.88;4983751;27;98860;-59
2020/12/10 08:09:19;;;;;;;27.23;20.02;;;;;;;11.96;50.78;99982.63;4982812;27;98894;-57
2020/12/10 08:11:53;;;;;;;26.83;19.30;;;;;;;11.95;50.79;99983.72;5001851;27;98183;-57
2020/12/10 08:14:29;;;;;;;30.20;24.45;;;;;;;11.91;51.09;99982.69;5002807;27;97954;-57
2020/12/10 08:16:56;;;;;;;34.83;25.38;;;;;;;11.92;50.86;99979.69;5018217;27;98875;-59
2020/12/10 08:19:29;;;;;;;31.45;24.27;;;;;;;11.92;51.18;99978.88;5002861;27;98065;-59
2020/12/10 08:21:56;;;;;;;31.65;23.55;;;;;;;11.94;50.72;99979.38;5020407;27;98468;-57
2020/12/10 08:24:41;;;;;;;31.08;22.38;;;;;;;11.92;51.21;99971.59;5021762;27;97763;-59
2020/12/10 08:27:10;;;;;;;29.58;22.75;;;;;;;11.95;51.54;99968.31;5021794;27;99015;-59
2020/12/10 08:29:36;;;;;;;30.48;22.27;;;;;;;11.98;51.28;99973.13;5021704;27;97879;-59
2020/12/10 08:32:11;;;;;;;29.10;21.20;;;;;;;11.98;51.38;99967.72;5020948;27;126328;-58
2020/12/10 08:34:38;;;;;;;28.65;20.73;;;;;;;12.03;51.69;99975.78;5022779;27;97871;-57
2020/12/10 08:37:09;;;;;;;28.55;19.55;;;;;;;12.01;51.46;99972.53;5022107;27;98820;-57
2020/12/10 08:39:37;;;;;;;29.02;20.23;;;;;;;12.03;51.57;99961.47;5021556;27;99217;-57
2020/12/10 08:42:03;;;;;;;26.23;19.48;;;;;;;12.06;51.78;99978.97;5022181;27;98313;-57
2020/12/10 08:44:50;;;;;;;32.78;25.02;;;;;;;12.06;51.54;99970.88;5007903;27;98014;-58
2020/12/10 08:47:27;;;;;;;42.50;35.03;;;;;;;12.06;51.45;99974.38;4999090;27;97928;-59
2020/12/10 08:50:27;;;;;;;50.13;41.70;;;;;;;12.05;51.60;99967.38;4998745;27;108378;-57
2020/12/10 08:52:59;;;;;;;46.05;38.45;;;;;;;12.08;51.56;99974.09;5000960;27;98525;-58
2020/12/10 08:55:53;;;;;;;42.83;35.57;;;;;;;12.02;51.87;99966.06;5002051;27;97878;-59
2020/12/10 08:58:24;;;;;;;38.95;33.50;;;;;;;12.06;52.05;99971.66;5001160;27;99092;-57
2020/12/10 09:00:51;;;;;;;40.13;32.65;;;;;;;12.06;52.17;99968.16;5001014;27;98758;-57
2020/12/10 09:03:18;;;;;;;41.72;32.90;;;;;;;12.07;52.00;99967.91;5000637;27;98312;-59
2020/12/10 09:05:44;;;;;;;42.28;34.00;;;;;;;12.04;52.22;99971.97;5001493;27;97780;-59
2020/12/10 09:08:11;;;;;;;40.78;33.80;;;;;;;12.07;52.30;99972.50;5000943;27;99042;-59
2020/12/10 09:10:37;;;;;;;40.22;32.80;;;;;;;12.04;52.52;99971.97;5001699;27;98613;-57
2020/12/10 09:13:03;;;;;;;38.70;31.00;;;;;;;12.07;51.88;99967.09;5019764;27;98071;-59
2020/12/10 09:15:30;;;;;;;40.20;32.03;;;;;;;12.04;52.20;99966.56;5021929;27;97938;-59
2020/12/10 09:17:56;;;;;;;39.17;30.40;;;;;;;12.02;52.45;99971.47;5018893;27;98337;-59
2020/12/10 09:20:23;;;;;;;40.20;30.67;;;;;;;12.05;52.67;99956.56;4981657;27;97933;-59
2020/12/10 09:22:49;;;;;;;37.78;29.52;;;;;;;12.06;52.19;99963.56;5000868;27;98063;-59
2020/12/10 09:25:15;;;;;;;36.33;29.17;;;;;;;12.08;52.61;99955.19;5000240;27;104825;-59
2020/12/10 09:27:41;;;;;;;36.45;28.65;;;;;;;12.06;52.23;99951.97;5000423;27;103748;-59
2020/12/10 09:30:08;;;;;;;32.95;27.30;;;;;;;12.08;52.62;99953.28;5000550;27;98370;-57
2020/12/10 09:32:35;;;;;;;36.38;26.95;;;;;;;12.08;52.62;99947.88;5000807;27;98014;-57
2020/12/10 09:35:08;;;;;;;33.35;26.35;;;;;;;12.05;52.48;99932.25;4981654;27;98147;-59
2020/12/10 09:37:35;;;;;;;33.72;25.63;;;;;;;12.09;52.53;99929.78;5003244;27;99050;-59
2020/12/10 09:40:01;;;;;;;32.50;25.40;;;;;;;12.12;52.51;99929.22;5020460;27;99303;-59
2020/12/10 09:42:28;;;;;;;33.40;25.05;;;;;;;12.13;52.66;99931.59;5020712;27;113419;-59
2020/12/10 09:44:54;;;;;;;35.83;26.23;;;;;;;12.13;52.75;99928.91;5019472;27;98135;-59
2020/12/10 09:47:20;;;;;;;33.72;25.38;;;;;;;12.14;52.76;99914.28;5019720;27;127866;-59
2020/12/10 09:49:46;;;;;;;34.70;24.25;;;;;;;12.16;52.62;99911.31;5019289;27;125719;-59
2020/12/10 09:52:13;;;;;;;33.05;24.67;;;;;;;12.16;52.69;99914.03;5020579;27;98175;-59
2020/12/10 09:54:54;;;;;;;36.03;26.10;;;;;;;12.18;52.41;99901.84;5021668;27;98131;-57
2020/12/10 09:57:29;;;;;;;36.00;25.30;;;;;;;12.18;52.93;99901.84;5021506;27;98547;-59
2020/12/10 09:59:57;;;;;;;37.78;26.52;;;;;;;12.21;52.76;99905.84;5021120;27;98445;-59
2020/12/10 10:02:23;;;;;;;34.08;25.73;;;;;;;12.19;52.84;99911.53;5018822;27;98432;-59
2020/12/10 10:04:49;;;;;;;36.40;27.85;;;;;;;12.22;52.87;99904.72;5014820;27;97764;-57
2020/12/10 10:07:15;;;;;;;38.13;28.15;;;;;;;12.22;52.95;99910.97;5010193;27;99024;-59
2020/12/10 10:09:42;;;;;;;39.13;28.83;;;;;;;12.23;53.14;99907.16;5010529;27;98839;-59
2020/12/10 10:12:09;;;;;;;39.42;28.83;;;;;;;12.21;52.65;99903.13;5024127;27;98065;-60
2020/12/10 10:14:36;;;;;;;37.72;28.23;;;;;;;12.22;52.93;99900.16;5024135;27;98137;-59
2020/12/10 10:17:07;;;;;;;34.88;26.48;;;;;;;12.26;52.89;99905.75;5024244;27;99016;-57
2020/12/10 10:19:33;;;;;;;36.65;26.55;;;;;;;12.24;52.82;99906.06;5021185;27;98638;-57
2020/12/10 10:21:59;;;;;;;34.85;24.83;;;;;;;12.24;53.03;99899.84;5020596;27;126716;-57
2020/12/10 10:24:25;;;;;;;77.35;54.25;;;;;;;12.22;53.25;99896.63;5022859;27;105148;-59
2020/12/10 10:26:52;;;;;;;79.45;58.30;;;;;;;12.24;53.26;99891.75;5023275;27;98725;-57
2020/12/10 10:29:21;;;;;;;71.97;53.22;;;;;;;12.24;53.02;99903.34;5011703;27;98945;-59
2020/12/10 10:31:51;;;;;;;71.15;54.00;;;;;;;12.23;53.17;99900.97;5003311;27;97865;-58
2020/12/10 10:34:18;;;;;;;80.32;60.30;;;;;;;12.25;53.51;99896.06;5007790;27;108098;-57
2020/12/10 10:36:44;;;;;;;74.97;57.70;;;;;;;12.25;53.13;99896.06;5022250;27;115968;-57
2020/12/10 10:39:11;;;;;;;69.13;53.42;;;;;;;12.24;53.24;99897.94;5022197;27;98564;-57
2020/12/10 10:41:45;;;;;;;65.35;50.65;;;;;;;12.22;53.50;99893.94;5024174;27;98288;-59
2020/12/10 10:44:11;;;;;;;61.28;47.47;;;;;;;12.24;53.35;99894.44;5024733;27;97769;-57
2020/12/10 10:46:37;;;;;;;55.88;44.60;;;;;;;12.22;53.58;99883.94;5021576;27;114936;-59
2020/12/10 10:49:03;;;;;;;55.33;42.42;;;;;;;12.23;53.53;99890.16;5002249;27;127104;-59
2020/12/10 10:51:29;;;;;;;53.63;40.88;;;;;;;12.21;53.62;99895.81;4999958;27;125355;-59
2020/12/10 10:53:56;;;;;;;69.18;54.90;;;;;;;12.22;53.25;99892.06;5002559;27;107781;-59
2020/12/10 10:56:23;;;;;;;79.13;65.50;;;;;;;12.26;53.32;99892.25;5002910;27;98997;-59
2020/12/10 10:58:49;;;;;;;76.97;63.10;;;;;;;12.26;53.08;99893.06;5002951;27;99882;-58
2020/12/10 11:01:15;;;;;;;71.28;58.28;;;;;;;12.25;53.45;99887.94;5007072;27;98182;-59
2020/12/10 11:03:42;;;;;;;66.22;53.53;;;;;;;12.26;53.41;99881.44;5022561;27;98131;-58
2020/12/10 11:06:13;;;;;;;63.88;51.33;;;;;;;12.24;53.34;99876.34;5006848;27;98994;-59
2020/12/10 11:08:39;;;;;;;57.92;47.03;;;;;;;12.24;53.28;99876.34;5008435;27;114912;-57
2020/12/10 11:11:05;;;;;;;58.45;46.40;;;;;;;12.23;53.61;99880.13;5020938;27;126863;-59
2020/12/10 11:13:31;;;;;;;54.40;42.85;;;;;;;12.25;53.42;99877.94;5022055;27;116562;-58
2020/12/10 11:15:57;;;;;;;49.88;40.05;;;;;;;12.24;53.38;99873.63;5019269;27;127523;-57
2020/12/10 11:18:23;;;;;;;50.67;38.95;;;;;;;12.31;53.02;99869.78;5019249;27;127925;-59